sensor_id;sensor_type;location;lat;lon;timestamp;pressure;altitude;pressure_sealevel;temperature;humidity
14902;BME280;7542;49.078;9.194;2023-05-03T00:00:55;99434.00;;;29.11;30.01
14902;BME280;7542;49.078;9.194;2023-05-03T00:02:01;99433.19;;;29.11;29.42
14902;BME280;7542;49.078;9.194;2023-05-03T00:03:03;99437.78;;;29.10;29.08
14902;BME280;7542;49.078;9.194;2023-05-03T00:04:08;99438.59;;;29.11;29.13
14902;BME280;7542;49.078;9.194;2023-05-03T00:05:11;99444.25;;;29.09;29.42
14902;BME280;7542;49.078;9.194;2023-05-03T00:06:15;99442.91;;;29.12;29.06
14902;BME280;7542;49.078;9.194;2023-05-03T00:07:16;99436.16;;;29.09;29.39
14902;BME280;7542;49.078;9.194;2023-05-03T00:08:19;99439.66;;;29.10;29.32
14902;BME280;7542;49.078;9.194;2023-05-03T00:09:22;99440.19;;;29.07;29.20
14902;BME280;7542;49.078;9.194;2023-05-03T00:10:24;99448.00;;;29.08;29.28
14902;BME280;7542;49.078;9.194;2023-05-03T00:11:26;99438.28;;;29.07;29.51
14902;BME280;7542;49.078;9.194;2023-05-03T00:12:29;99447.19;;;29.08;29.47
14902;BME280;7542;49.078;9.194;2023-05-03T00:13:31;99451.00;;;29.07;29.49
14902;BME280;7542;49.078;9.194;2023-05-03T00:14:33;99449.09;;;29.07;29.12
14902;BME280;7542;49.078;9.194;2023-05-03T00:15:35;99449.38;;;29.06;29.02
14902;BME280;7542;49.078;9.194;2023-05-03T00:16:37;99445.59;;;29.07;29.54
14902;BME280;7542;49.078;9.194;2023-05-03T00:17:39;99454.78;;;29.06;29.01
14902;BME280;7542;49.078;9.194;2023-05-03T00:18:41;99448.56;;;29.05;29.16
14902;BME280;7542;49.078;9.194;2023-05-03T00:19:43;99439.94;;;29.03;29.24
14902;BME280;7542;49.078;9.194;2023-05-03T00:20:45;99448.31;;;29.02;29.05
14902;BME280;7542;49.078;9.194;2023-05-03T00:21:47;99448.31;;;29.02;29.01
14902;BME280;7542;49.078;9.194;2023-05-03T00:22:50;99450.19;;;29.01;29.08
14902;BME280;7542;49.078;9.194;2023-05-03T00:23:52;99453.97;;;29.00;29.12
14902;BME280;7542;49.078;9.194;2023-05-03T00:24:54;99452.09;;;29.01;29.33
14902;BME280;7542;49.078;9.194;2023-05-03T00:25:57;99443.44;;;28.99;29.17
14902;BME280;7542;49.078;9.194;2023-05-03T00:27:00;99451.56;;;28.99;29.05
14902;BME280;7542;49.078;9.194;2023-05-03T00:28:02;99449.09;;;28.97;29.33
14902;BME280;7542;49.078;9.194;2023-05-03T00:29:04;99448.28;;;28.97;29.19
14902;BME280;7542;49.078;9.194;2023-05-03T00:30:07;99445.84;;;28.95;29.39
14902;BME280;7542;49.078;9.194;2023-05-03T00:31:09;99449.38;;;28.96;29.50
14902;BME280;7542;49.078;9.194;2023-05-03T00:32:12;99439.91;;;28.93;29.22
14902;BME280;7542;49.078;9.194;2023-05-03T00:33:14;99438.03;;;28.94;29.12
14902;BME280;7542;49.078;9.194;2023-05-03T00:34:17;99442.09;;;28.91;29.07
14902;BME280;7542;49.078;9.194;2023-05-03T00:35:19;99441.00;;;28.92;29.14
14902;BME280;7542;49.078;9.194;2023-05-03T00:36:21;99440.47;;;28.90;29.01
14902;BME280;7542;49.078;9.194;2023-05-03T00:37:24;99441.28;;;28.91;29.22
14902;BME280;7542;49.078;9.194;2023-05-03T00:38:26;99440.47;;;28.90;29.19
14902;BME280;7542;49.078;9.194;2023-05-03T00:39:29;99441.53;;;28.89;29.21
14902;BME280;7542;49.078;9.194;2023-05-03T00:40:34;99439.09;;;28.87;29.43
14902;BME280;7542;49.078;9.194;2023-05-03T00:41:38;99438.25;;;28.87;29.44
14902;BME280;7542;49.078;9.194;2023-05-03T00:42:40;99431.22;;;28.86;29.12
14902;BME280;7542;49.078;9.194;2023-05-03T00:43:42;99437.72;;;28.85;29.40
14902;BME280;7542;49.078;9.194;2023-05-03T00:44:44;99447.69;;;28.84;29.20
14902;BME280;7542;49.078;9.194;2023-05-03T00:45:46;99438.78;;;28.84;29.39
14902;BME280;7542;49.078;9.194;2023-05-03T00:46:49;99433.66;;;28.82;29.10
14902;BME280;7542;49.078;9.194;2023-05-03T00:47:51;99430.16;;;28.82;29.19
14902;BME280;7542;49.078;9.194;2023-05-03T00:48:53;99438.25;;;28.82;29.21
14902;BME280;7542;49.078;9.194;2023-05-03T00:49:55;99436.38;;;28.82;28.96
14902;BME280;7542;49.078;9.194;2023-05-03T00:50:59;99431.25;;;28.81;29.41
14902;BME280;7542;49.078;9.194;2023-05-03T00:52:02;99425.03;;;28.80;29.18
14902;BME280;7542;49.078;9.194;2023-05-03T00:53:04;99424.22;;;28.80;28.97
14902;BME280;7542;49.078;9.194;2023-05-03T00:54:08;99427.19;;;28.78;29.28
14902;BME280;7542;49.078;9.194;2023-05-03T00:55:10;99422.59;;;28.79;29.26
14902;BME280;7542;49.078;9.194;2023-05-03T00:56:17;99421.53;;;28.80;29.39
14902;BME280;7542;49.078;9.194;2023-05-03T00:57:26;99420.72;;;28.79;29.06
14902;BME280;7542;49.078;9.194;2023-05-03T00:58:30;99430.97;;;28.77;29.43
14902;BME280;7542;49.078;9.194;2023-05-03T00:59:34;99428.00;;;28.79;29.20
14902;BME280;7542;49.078;9.194;2023-05-03T01:00:36;99418.53;;;28.76;29.27
14902;BME280;7542;49.078;9.194;2023-05-03T01:01:38;99415.03;;;28.76;29.36
14902;BME280;7542;49.078;9.194;2023-05-03T01:02:40;99411.28;;;28.77;29.43
14902;BME280;7542;49.078;9.194;2023-05-03T01:03:43;99418.00;;;28.74;29.54
14902;BME280;7542;49.078;9.194;2023-05-03T01:04:47;99417.19;;;28.74;29.09
14902;BME280;7542;49.078;9.194;2023-05-03T01:11:11;99418.28;;;28.73;29.22
14902;BME280;7542;49.078;9.194;2023-05-03T01:14:35;99431.50;;;28.69;29.37
14902;BME280;7542;49.078;9.194;2023-05-03T01:16:51;99421.50;;;28.65;29.70
14902;BME280;7542;49.078;9.194;2023-05-03T01:18:09;99421.50;;;28.65;29.31
14902;BME280;7542;49.078;9.194;2023-05-03T01:19:27;99422.56;;;28.64;29.26
14902;BME280;7542;49.078;9.194;2023-05-03T01:20:31;99422.56;;;28.64;29.51
14902;BME280;7542;49.078;9.194;2023-05-03T01:21:36;99425.53;;;28.62;29.24
14902;BME280;7542;49.078;9.194;2023-05-03T01:22:46;99422.84;;;28.62;29.38
14902;BME280;7542;49.078;9.194;2023-05-03T01:24:10;99419.88;;;28.64;29.15
14902;BME280;7542;49.078;9.194;2023-05-03T01:25:15;99417.44;;;28.62;29.16
14902;BME280;7542;49.078;9.194;2023-05-03T01:27:25;99424.19;;;28.59;29.09
14902;BME280;7542;49.078;9.194;2023-05-03T01:28:27;99423.91;;;28.61;29.31
14902;BME280;7542;49.078;9.194;2023-05-03T01:29:29;99419.88;;;28.58;29.20
14902;BME280;7542;49.078;9.194;2023-05-03T01:30:33;99420.97;;;28.57;29.15
14902;BME280;7542;49.078;9.194;2023-05-03T01:31:43;99418.25;;;28.57;29.30
14902;BME280;7542;49.078;9.194;2023-05-03T01:33:03;99420.97;;;28.57;29.28
14902;BME280;7542;49.078;9.194;2023-05-03T01:34:30;99415.56;;;28.57;29.17
14902;BME280;7542;49.078;9.194;2023-05-03T01:35:49;99421.22;;;28.56;29.09
14902;BME280;7542;49.078;9.194;2023-05-03T01:36:57;99421.47;;;28.54;29.15
14902;BME280;7542;49.078;9.194;2023-05-03T01:38:01;99421.75;;;28.53;29.14
14902;BME280;7542;49.078;9.194;2023-05-03T01:39:11;99412.28;;;28.50;29.19
14902;BME280;7542;49.078;9.194;2023-05-03T01:40:17;99416.63;;;28.51;29.07
14902;BME280;7542;49.078;9.194;2023-05-03T01:41:23;99412.03;;;28.52;29.30
14902;BME280;7542;49.078;9.194;2023-05-03T01:42:28;99413.38;;;28.49;29.31
14902;BME280;7542;49.078;9.194;2023-05-03T01:43:34;99412.28;;;28.50;29.18
14902;BME280;7542;49.078;9.194;2023-05-03T01:44:38;99415.00;;;28.50;29.03
14902;BME280;7542;49.078;9.194;2023-05-03T01:45:42;99416.63;;;28.46;29.06
14902;BME280;7542;49.078;9.194;2023-05-03T01:46:45;99415.53;;;28.47;29.33
14902;BME280;7542;49.078;9.194;2023-05-03T01:47:47;99410.94;;;28.48;29.08
14902;BME280;7542;49.078;9.194;2023-05-03T01:48:50;99419.31;;;28.46;29.15
14902;BME280;7542;49.078;9.194;2023-05-03T01:49:52;99419.31;;;28.46;29.03
14902;BME280;7542;49.078;9.194;2023-05-03T01:50:54;99412.31;;;28.45;29.17
14902;BME280;7542;49.078;9.194;2023-05-03T01:51:56;99410.69;;;28.44;29.32
14902;BME280;7542;49.078;9.194;2023-05-03T01:52:57;99413.38;;;28.44;29.03
14902;BME280;7542;49.078;9.194;2023-05-03T01:53:59;99409.03;;;28.43;29.04
14902;BME280;7542;49.078;9.194;2023-05-03T01:55:01;99413.38;;;28.44;29.12
14902;BME280;7542;49.078;9.194;2023-05-03T01:56:04;99408.22;;;28.43;29.34
14902;BME280;7542;49.078;9.194;2023-05-03T01:57:06;99408.22;;;28.43;29.33
14902;BME280;7542;49.078;9.194;2023-05-03T01:58:08;99411.19;;;28.41;29.50
14902;BME280;7542;49.078;9.194;2023-05-03T01:59:11;99406.59;;;28.42;29.51
14902;BME280;7542;49.078;9.194;2023-05-03T02:00:13;99410.13;;;28.42;29.40
14902;BME280;7542;49.078;9.194;2023-05-03T02:01:15;99408.50;;;28.41;29.35
14902;BME280;7542;49.078;9.194;2023-05-03T02:02:17;99405.78;;;28.41;29.25
14902;BME280;7542;49.078;9.194;2023-05-03T02:03:19;99414.97;;;28.40;29.20
14902;BME280;7542;49.078;9.194;2023-05-03T02:04:21;99405.78;;;28.41;29.15
14902;BME280;7542;49.078;9.194;2023-05-03T02:05:23;99411.19;;;28.41;29.36
14902;BME280;7542;49.078;9.194;2023-05-03T02:06:26;99411.19;;;28.41;29.41
14902;BME280;7542;49.078;9.194;2023-05-03T02:07:28;99401.47;;;28.40;29.33
14902;BME280;7542;49.078;9.194;2023-05-03T02:08:30;99400.41;;;28.41;29.38
14902;BME280;7542;49.078;9.194;2023-05-03T02:09:33;99410.38;;;28.41;29.23
14902;BME280;7542;49.078;9.194;2023-05-03T02:10:34;99407.97;;;28.39;29.54
14902;BME280;7542;49.078;9.194;2023-05-03T02:11:36;99417.66;;;28.40;29.37
14902;BME280;7542;49.078;9.194;2023-05-03T02:12:43;99416.59;;;28.41;29.24
14902;BME280;7542;49.078;9.194;2023-05-03T02:13:48;99413.09;;;28.41;29.43
14902;BME280;7542;49.078;9.194;2023-05-03T02:14:53;99409.03;;;28.38;29.57
14902;BME280;7542;49.078;9.194;2023-05-03T02:15:55;99416.84;;;28.40;29.32
14902;BME280;7542;49.078;9.194;2023-05-03T02:16:57;99414.44;;;28.38;29.39
14902;BME280;7542;49.078;9.194;2023-05-03T02:18:00;99413.34;;;28.39;29.23
14902;BME280;7542;49.078;9.194;2023-05-03T02:19:03;99418.22;;;28.37;29.30
14902;BME280;7542;49.078;9.194;2023-05-03T02:20:06;99418.47;;;28.36;29.20
14902;BME280;7542;49.078;9.194;2023-05-03T02:21:11;99419.81;;;28.38;29.24
14902;BME280;7542;49.078;9.194;2023-05-03T02:22:14;99409.31;;;28.37;29.25
14902;BME280;7542;49.078;9.194;2023-05-03T02:23:15;99414.69;;;28.37;29.25
14902;BME280;7542;49.078;9.194;2023-05-03T02:24:18;99409.31;;;28.37;29.17
14902;BME280;7542;49.078;9.194;2023-05-03T02:25:20;99411.19;;;28.36;29.32
14902;BME280;7542;49.078;9.194;2023-05-03T02:26:22;99407.97;;;28.34;29.14
14902;BME280;7542;49.078;9.194;2023-05-03T02:27:24;99409.84;;;28.34;29.11
14902;BME280;7542;49.078;9.194;2023-05-03T02:28:26;99410.91;;;28.33;29.04
14902;BME280;7542;49.078;9.194;2023-05-03T02:29:29;99417.13;;;28.33;29.23
14902;BME280;7542;49.078;9.194;2023-05-03T02:30:33;99415.75;;;28.30;29.10
14902;BME280;7542;49.078;9.194;2023-05-03T02:31:35;99407.16;;;28.34;28.88
14902;BME280;7542;49.078;9.194;2023-05-03T02:32:37;99409.28;;;28.32;29.02
14902;BME280;7542;49.078;9.194;2023-05-03T02:33:39;99408.47;;;28.31;29.02
14902;BME280;7542;49.078;9.194;2023-05-03T02:34:46;99403.34;;;28.29;29.00
14902;BME280;7542;49.078;9.194;2023-05-03T02:35:48;99403.34;;;28.29;29.07
14902;BME280;7542;49.078;9.194;2023-05-03T02:36:50;99409.00;;;28.28;29.00
14902;BME280;7542;49.078;9.194;2023-05-03T02:37:52;99405.50;;;28.27;28.99
14902;BME280;7542;49.078;9.194;2023-05-03T02:38:54;99405.75;;;28.26;28.96
14902;BME280;7542;49.078;9.194;2023-05-03T02:39:56;99408.44;;;28.26;29.00
14902;BME280;7542;49.078;9.194;2023-05-03T02:40:58;99408.44;;;28.26;29.05
14902;BME280;7542;49.078;9.194;2023-05-03T02:42:00;99407.09;;;28.23;29.00
14902;BME280;7542;49.078;9.194;2023-05-03T02:43:03;99412.22;;;28.25;29.03
14902;BME280;7542;49.078;9.194;2023-05-03T02:44:05;99410.03;;;28.22;29.25
14902;BME280;7542;49.078;9.194;2023-05-03T02:45:08;99410.88;;;28.22;28.96
14902;BME280;7542;49.078;9.194;2023-05-03T02:46:10;99411.09;;;28.21;28.98
14902;BME280;7542;49.078;9.194;2023-05-03T02:47:12;99405.72;;;28.21;28.94
14902;BME280;7542;49.078;9.194;2023-05-03T02:48:14;99406.78;;;28.20;29.01
14902;BME280;7542;49.078;9.194;2023-05-03T02:49:17;99414.88;;;28.20;29.31
14902;BME280;7542;49.078;9.194;2023-05-03T02:50:19;99415.69;;;28.20;29.31
14902;BME280;7542;49.078;9.194;2023-05-03T02:51:21;99414.06;;;28.19;29.19
14902;BME280;7542;49.078;9.194;2023-05-03T02:52:23;99410.56;;;28.19;29.22
14902;BME280;7542;49.078;9.194;2023-05-03T02:53:25;99412.19;;;28.20;29.25
14902;BME280;7542;49.078;9.194;2023-05-03T02:54:27;99410.56;;;28.19;29.30
14902;BME280;7542;49.078;9.194;2023-05-03T02:55:29;99413.25;;;28.19;29.27
14902;BME280;7542;49.078;9.194;2023-05-03T02:56:31;99407.88;;;28.19;29.35
14902;BME280;7542;49.078;9.194;2023-05-03T02:57:34;99412.44;;;28.18;29.63
14902;BME280;7542;49.078;9.194;2023-05-03T02:58:36;99411.63;;;28.18;29.36
14902;BME280;7542;49.078;9.194;2023-05-03T02:59:38;99410.81;;;28.17;29.14
14902;BME280;7542;49.078;9.194;2023-05-03T03:00:41;99414.59;;;28.16;29.50
14902;BME280;7542;49.078;9.194;2023-05-03T03:01:43;99415.41;;;28.17;29.44
14902;BME280;7542;49.078;9.194;2023-05-03T03:02:46;99416.22;;;28.17;29.25
14902;BME280;7542;49.078;9.194;2023-05-03T03:03:48;99412.19;;;28.15;29.19
14902;BME280;7542;49.078;9.194;2023-05-03T03:04:51;99418.09;;;28.17;29.27
14902;BME280;7542;49.078;9.194;2023-05-03T03:05:53;99418.09;;;28.17;29.26
14902;BME280;7542;49.078;9.194;2023-05-03T03:06:55;99419.19;;;28.16;29.37
14902;BME280;7542;49.078;9.194;2023-05-03T03:07:57;99417.31;;;28.16;29.22
14902;BME280;7542;49.078;9.194;2023-05-03T03:08:59;99414.59;;;28.16;29.27
14902;BME280;7542;49.078;9.194;2023-05-03T03:10:01;99412.19;;;28.15;29.20
14902;BME280;7542;49.078;9.194;2023-05-03T03:11:05;99414.06;;;28.14;29.14
14902;BME280;7542;49.078;9.194;2023-05-03T03:12:07;99416.75;;;28.14;29.00
14902;BME280;7542;49.078;9.194;2023-05-03T03:13:09;99418.09;;;28.12;29.19
14902;BME280;7542;49.078;9.194;2023-05-03T03:14:11;99410.81;;;28.12;29.10
14902;BME280;7542;49.078;9.194;2023-05-03T03:15:13;99413.75;;;28.11;29.11
14902;BME280;7542;49.078;9.194;2023-05-03T03:16:15;99412.72;;;28.12;29.11
14902;BME280;7542;49.078;9.194;2023-05-03T03:17:17;99419.97;;;28.11;29.24
14902;BME280;7542;49.078;9.194;2023-05-03T03:18:19;99410.25;;;28.10;29.09
14902;BME280;7542;49.078;9.194;2023-05-03T03:19:21;99414.56;;;28.11;28.94
14902;BME280;7542;49.078;9.194;2023-05-03T03:20:23;99411.06;;;28.11;28.96
14902;BME280;7542;49.078;9.194;2023-05-03T03:21:25;99407.81;;;28.09;29.09
14902;BME280;7542;49.078;9.194;2023-05-03T03:22:30;99408.09;;;28.07;29.03
14902;BME280;7542;49.078;9.194;2023-05-03T03:23:32;99413.22;;;28.09;28.85
14902;BME280;7542;49.078;9.194;2023-05-03T03:24:34;99412.69;;;28.07;29.18
14902;BME280;7542;49.078;9.194;2023-05-03T03:25:36;99416.44;;;28.06;28.97
14902;BME280;7542;49.078;9.194;2023-05-03T03:26:38;99411.06;;;28.06;28.98
14902;BME280;7542;49.078;9.194;2023-05-03T03:27:40;99419.16;;;28.06;29.00
14902;BME280;7542;49.078;9.194;2023-05-03T03:28:42;99417.53;;;28.05;28.89
14902;BME280;7542;49.078;9.194;2023-05-03T03:29:44;99417.53;;;28.05;28.93
14902;BME280;7542;49.078;9.194;2023-05-03T03:30:46;99420.50;;;28.03;28.97
14902;BME280;7542;49.078;9.194;2023-05-03T03:31:48;99420.75;;;28.01;29.10
14902;BME280;7542;49.078;9.194;2023-05-03T03:32:51;99416.19;;;28.02;29.07
14902;BME280;7542;49.078;9.194;2023-05-03T03:33:53;99411.06;;;28.00;28.83
14902;BME280;7542;49.078;9.194;2023-05-03T03:34:55;99409.41;;;27.99;28.92
14902;BME280;7542;49.078;9.194;2023-05-03T03:35:57;99420.19;;;27.99;29.04
14902;BME280;7542;49.078;9.194;2023-05-03T03:36:59;99423.41;;;27.96;29.03
14902;BME280;7542;49.078;9.194;2023-05-03T03:38:02;99416.13;;;27.97;28.69
14902;BME280;7542;49.078;9.194;2023-05-03T03:39:05;99419.66;;;27.97;28.90
14902;BME280;7542;49.078;9.194;2023-05-03T03:40:08;99419.09;;;27.95;29.03
14902;BME280;7542;49.078;9.194;2023-05-03T03:41:10;99418.03;;;27.96;28.95
14902;BME280;7542;49.078;9.194;2023-05-03T03:42:14;99419.09;;;27.95;28.87
14902;BME280;7542;49.078;9.194;2023-05-03T03:43:16;99418.28;;;27.95;28.93
14902;BME280;7542;49.078;9.194;2023-05-03T03:44:17;99423.13;;;27.93;28.94
14902;BME280;7542;49.078;9.194;2023-05-03T03:45:19;99425.03;;;27.92;28.92
14902;BME280;7542;49.078;9.194;2023-05-03T03:46:21;99422.34;;;27.92;28.83
14902;BME280;7542;49.078;9.194;2023-05-03T03:47:23;99428.00;;;27.91;28.80
14902;BME280;7542;49.078;9.194;2023-05-03T03:48:25;99424.47;;;27.90;28.77
14902;BME280;7542;49.078;9.194;2023-05-03T03:49:28;99424.47;;;27.90;28.86
14902;BME280;7542;49.078;9.194;2023-05-03T03:50:31;99425.53;;;27.89;28.92
14902;BME280;7542;49.078;9.194;2023-05-03T03:51:33;99423.09;;;27.88;28.89
14902;BME280;7542;49.078;9.194;2023-05-03T03:52:35;99429.31;;;27.88;28.88
14902;BME280;7542;49.078;9.194;2023-05-03T03:53:37;99427.94;;;27.86;28.73
14902;BME280;7542;49.078;9.194;2023-05-03T03:54:39;99438.72;;;27.86;28.90
14902;BME280;7542;49.078;9.194;2023-05-03T03:55:41;99437.91;;;27.85;28.96
14902;BME280;7542;49.078;9.194;2023-05-03T03:56:43;99441.94;;;27.83;28.94
14902;BME280;7542;49.078;9.194;2023-05-03T03:57:45;99437.38;;;27.83;28.93
14902;BME280;7542;49.078;9.194;2023-05-03T03:58:47;99441.16;;;27.82;28.94
14902;BME280;7542;49.078;9.194;2023-05-03T03:59:49;99436.56;;;27.83;29.08
14902;BME280;7542;49.078;9.194;2023-05-03T04:00:51;99451.94;;;27.82;28.81
14902;BME280;7542;49.078;9.194;2023-05-03T04:01:53;99444.09;;;27.81;28.68
14902;BME280;7542;49.078;9.194;2023-05-03T04:02:55;99446.81;;;27.81;28.81
14902;BME280;7542;49.078;9.194;2023-05-03T04:03:57;99439.78;;;27.80;28.99
14902;BME280;7542;49.078;9.194;2023-05-03T04:05:00;99446.22;;;27.79;29.05
14902;BME280;7542;49.078;9.194;2023-05-03T04:06:02;99445.19;;;27.80;29.04
14902;BME280;7542;49.078;9.194;2023-05-03T04:07:04;99447.06;;;27.79;28.99
14902;BME280;7542;49.078;9.194;2023-05-03T04:08:06;99452.47;;;27.79;29.01
14902;BME280;7542;49.078;9.194;2023-05-03T04:09:08;99446.00;;;27.80;28.99
14902;BME280;7542;49.078;9.194;2023-05-03T04:10:11;99448.91;;;27.79;29.05
14902;BME280;7542;49.078;9.194;2023-05-03T04:11:12;99455.16;;;27.79;29.11
14902;BME280;7542;49.078;9.194;2023-05-03T04:12:14;99454.06;;;27.80;29.17
14902;BME280;7542;49.078;9.194;2023-05-03T04:13:16;99452.19;;;27.81;29.25
14902;BME280;7542;49.078;9.194;2023-05-03T04:14:18;99450.31;;;27.81;29.37
14902;BME280;7542;49.078;9.194;2023-05-03T04:15:20;99450.31;;;27.81;29.33
14902;BME280;7542;49.078;9.194;2023-05-03T04:16:23;99455.44;;;27.83;29.18
14902;BME280;7542;49.078;9.194;2023-05-03T04:17:25;99452.75;;;27.83;29.20
14902;BME280;7542;49.078;9.194;2023-05-03T04:18:27;99447.34;;;27.83;29.20
14902;BME280;7542;49.078;9.194;2023-05-03T04:19:28;99448.16;;;27.83;29.21
14902;BME280;7542;49.078;9.194;2023-05-03T04:20:31;99449.78;;;27.84;29.18
14902;BME280;7542;49.078;9.194;2023-05-03T04:21:34;99441.69;;;27.84;29.17
14902;BME280;7542;49.078;9.194;2023-05-03T04:22:37;99443.56;;;27.84;29.48
14902;BME280;7542;49.078;9.194;2023-05-03T04:23:40;99441.69;;;27.84;29.12
14902;BME280;7542;49.078;9.194;2023-05-03T04:24:42;99440.63;;;27.85;29.39
14902;BME280;7542;49.078;9.194;2023-05-03T04:25:44;99441.44;;;27.86;29.30
14902;BME280;7542;49.078;9.194;2023-05-03T04:26:49;99447.63;;;27.86;29.19
14902;BME280;7542;49.078;9.194;2023-05-03T04:27:52;99447.63;;;27.86;29.37
14902;BME280;7542;49.078;9.194;2023-05-03T04:28:54;99451.94;;;27.87;29.52
14902;BME280;7542;49.078;9.194;2023-05-03T04:29:56;99452.75;;;27.88;29.28
14902;BME280;7542;49.078;9.194;2023-05-03T04:30:59;99453.31;;;27.90;29.49
14902;BME280;7542;49.078;9.194;2023-05-03T04:32:01;99456.25;;;27.88;29.47
14902;BME280;7542;49.078;9.194;2023-05-03T04:33:03;99453.56;;;27.88;29.53
14902;BME280;7542;49.078;9.194;2023-05-03T04:34:05;99453.31;;;27.90;29.63
14902;BME280;7542;49.078;9.194;2023-05-03T04:35:09;99455.75;;;27.91;29.46
14902;BME280;7542;49.078;9.194;2023-05-03T04:36:13;99455.50;;;27.93;29.50
14902;BME280;7542;49.078;9.194;2023-05-03T04:37:21;99460.34;;;27.91;29.65
14902;BME280;7542;49.078;9.194;2023-05-03T04:38:23;99461.69;;;27.93;29.50
14902;BME280;7542;49.078;9.194;2023-05-03T04:39:25;99454.69;;;27.92;29.52
14902;BME280;7542;49.078;9.194;2023-05-03T04:40:27;99458.19;;;27.93;29.51
14902;BME280;7542;49.078;9.194;2023-05-03T04:41:29;99462.50;;;27.94;29.70
14902;BME280;7542;49.078;9.194;2023-05-03T04:42:31;99454.41;;;27.94;29.64
14902;BME280;7542;49.078;9.194;2023-05-03T04:43:34;99466.00;;;27.94;29.63
14902;BME280;7542;49.078;9.194;2023-05-03T04:44:35;99463.84;;;27.96;29.65
14902;BME280;7542;49.078;9.194;2023-05-03T04:45:38;99459.53;;;27.95;29.61
14902;BME280;7542;49.078;9.194;2023-05-03T04:46:40;99459.53;;;27.95;29.59
14902;BME280;7542;49.078;9.194;2023-05-03T04:47:42;99469.25;;;27.96;29.58
14902;BME280;7542;49.078;9.194;2023-05-03T04:48:45;99462.78;;;27.97;29.60
14902;BME280;7542;49.078;9.194;2023-05-03T04:49:47;99463.84;;;27.96;29.46
14902;BME280;7542;49.078;9.194;2023-05-03T04:50:49;99466.28;;;27.98;30.04
14902;BME280;7542;49.078;9.194;2023-05-03T04:51:52;99458.47;;;27.96;29.69
14902;BME280;7542;49.078;9.194;2023-05-03T04:52:58;99461.69;;;27.98;29.78
14902;BME280;7542;49.078;9.194;2023-05-03T04:53:59;99462.50;;;27.99;29.68
14902;BME280;7542;49.078;9.194;2023-05-03T04:55:02;99458.19;;;27.98;29.75
14902;BME280;7542;49.078;9.194;2023-05-03T04:56:06;99459.28;;;27.97;29.80
14902;BME280;7542;49.078;9.194;2023-05-03T04:57:08;99461.97;;;27.97;29.73
14902;BME280;7542;49.078;9.194;2023-05-03T04:58:11;99466.28;;;27.98;29.69
14902;BME280;7542;49.078;9.194;2023-05-03T04:59:13;99463.31;;;27.99;29.60
14902;BME280;7542;49.078;9.194;2023-05-03T05:00:15;99468.97;;;27.98;29.89
14902;BME280;7542;49.078;9.194;2023-05-03T05:01:17;99467.09;;;27.98;29.84
14902;BME280;7542;49.078;9.194;2023-05-03T05:02:19;99464.41;;;27.98;29.76
14902;BME280;7542;49.078;9.194;2023-05-03T05:03:22;99466.28;;;27.98;29.87
14902;BME280;7542;49.078;9.194;2023-05-03T05:04:24;99468.16;;;27.97;29.87
14902;BME280;7542;49.078;9.194;2023-05-03T05:05:26;99464.66;;;27.97;29.88
14902;BME280;7542;49.078;9.194;2023-05-03T05:06:28;99471.13;;;27.96;29.80
14902;BME280;7542;49.078;9.194;2023-05-03T05:07:32;99466.53;;;27.96;29.93
14902;BME280;7542;49.078;9.194;2023-05-03T05:08:35;99468.44;;;27.96;29.78
14902;BME280;7542;49.078;9.194;2023-05-03T05:09:36;99474.63;;;27.96;29.84
14902;BME280;7542;49.078;9.194;2023-05-03T05:10:42;99470.06;;;27.97;29.94
14902;BME280;7542;49.078;9.194;2023-05-03T05:11:44;99468.44;;;27.96;29.97
14902;BME280;7542;49.078;9.194;2023-05-03T05:12:46;99473.03;;;27.95;30.04
14902;BME280;7542;49.078;9.194;2023-05-03T05:13:48;99477.34;;;27.96;29.92
14902;BME280;7542;49.078;9.194;2023-05-03T05:14:50;99474.63;;;27.96;29.99
14902;BME280;7542;49.078;9.194;2023-05-03T05:15:52;99476.53;;;27.96;29.89
14902;BME280;7542;49.078;9.194;2023-05-03T05:16:54;99473.03;;;27.95;29.98
14902;BME280;7542;49.078;9.194;2023-05-03T05:17:55;99476.53;;;27.96;29.98
14902;BME280;7542;49.078;9.194;2023-05-03T05:18:58;99472.22;;;27.95;29.99
14902;BME280;7542;49.078;9.194;2023-05-03T05:20:00;99475.72;;;27.95;30.06
14902;BME280;7542;49.078;9.194;2023-05-03T05:21:02;99470.59;;;27.94;30.08
14902;BME280;7542;49.078;9.194;2023-05-03T05:22:04;99485.69;;;27.95;29.95
14902;BME280;7542;49.078;9.194;2023-05-03T05:23:06;99480.28;;;27.95;30.04
14902;BME280;7542;49.078;9.194;2023-05-03T05:24:08;99481.38;;;27.94;30.06
14902;BME280;7542;49.078;9.194;2023-05-03T05:25:10;99477.88;;;27.93;29.95
14902;BME280;7542;49.078;9.194;2023-05-03T05:26:12;99473.28;;;27.94;30.13
14902;BME280;7542;49.078;9.194;2023-05-03T05:27:14;99481.38;;;27.94;30.17
14902;BME280;7542;49.078;9.194;2023-05-03T05:28:16;99478.69;;;27.94;30.07
14902;BME280;7542;49.078;9.194;2023-05-03T05:29:18;99478.41;;;27.95;30.07
14902;BME280;7542;49.078;9.194;2023-05-03T05:30:20;99484.06;;;27.94;29.97
14902;BME280;7542;49.078;9.194;2023-05-03T05:31:24;99482.19;;;27.94;30.02
14902;BME280;7542;49.078;9.194;2023-05-03T05:32:26;99478.41;;;27.95;30.09
14902;BME280;7542;49.078;9.194;2023-05-03T05:33:27;99486.75;;;27.94;30.10
14902;BME280;7542;49.078;9.194;2023-05-03T05:34:31;99470.59;;;27.94;30.14
14902;BME280;7542;49.078;9.194;2023-05-03T05:35:46;99480.28;;;27.95;30.22
14902;BME280;7542;49.078;9.194;2023-05-03T05:36:49;99479.47;;;27.94;30.23
14902;BME280;7542;49.078;9.194;2023-05-03T05:37:52;99479.47;;;27.94;29.99
14902;BME280;7542;49.078;9.194;2023-05-03T05:38:54;99482.72;;;27.96;30.22
14902;BME280;7542;49.078;9.194;2023-05-03T05:39:56;99477.59;;;27.95;30.24
14902;BME280;7542;49.078;9.194;2023-05-03T05:40:58;99477.88;;;27.93;30.09
14902;BME280;7542;49.078;9.194;2023-05-03T05:42:00;99479.47;;;27.94;30.16
14902;BME280;7542;49.078;9.194;2023-05-03T05:43:02;99471.41;;;27.94;30.14
14902;BME280;7542;49.078;9.194;2023-05-03T05:44:04;99473.28;;;27.94;30.08
14902;BME280;7542;49.078;9.194;2023-05-03T05:45:07;99474.91;;;27.95;30.20
14902;BME280;7542;49.078;9.194;2023-05-03T05:46:09;99483.00;;;27.95;30.21
14902;BME280;7542;49.078;9.194;2023-05-03T05:47:11;99480.28;;;27.95;30.22
14902;BME280;7542;49.078;9.194;2023-05-03T05:48:13;99478.41;;;27.95;30.24